sensor_id;sensor_type;location;lat;lon;timestamp;pressure;altitude;pressure_sealevel;temperature;humidity
46081;BME280;31821;51.880;-0.518;2022-12-07T00:01:17;101485.03;;;6.04;60.01
46081;BME280;31821;51.880;-0.518;2022-12-07T00:03:44;101491.81;;;5.84;60.16
46081;BME280;31821;51.880;-0.518;2022-12-07T00:06:12;101426.53;;;5.59;60.73
46081;BME280;31821;51.880;-0.518;2022-12-07T00:08:38;101430.69;;;5.62;60.10
46081;BME280;31821;51.880;-0.518;2022-12-07T00:11:09;101486.25;;;5.96;59.74
46081;BME280;31821;51.880;-0.518;2022-12-07T00:13:36;101477.13;;;5.90;60.23
46081;BME280;31821;51.880;-0.518;2022-12-07T00:16:07;101434.97;;;5.57;60.35
46081;BME280;31821;51.880;-0.518;2022-12-07T00:18:33;101471.75;;;5.79;60.50
46081;BME280;31821;51.880;-0.518;2022-12-07T00:21:04;101443.84;;;5.65;59.78
46081;BME280;31821;51.880;-0.518;2022-12-07T00:23:30;101453.38;;;5.62;59.54
46081;BME280;31821;51.880;-0.518;2022-12-07T00:26:03;101431.59;;;5.67;59.64
46081;BME280;31821;51.880;-0.518;2022-12-07T00:28:28;101415.31;;;5.43;59.41
46081;BME280;31821;51.880;-0.518;2022-12-07T00:31:03;101446.50;;;5.59;60.03
46081;BME280;31821;51.880;-0.518;2022-12-07T00:33:29;101436.81;;;5.52;59.19
46081;BME280;31821;51.880;-0.518;2022-12-07T00:35:56;101474.88;;;5.70;60.07
46081;BME280;31821;51.880;-0.518;2022-12-07T00:38:22;101471.16;;;5.77;59.99
46081;BME280;31821;51.880;-0.518;2022-12-07T00:40:56;101432.66;;;5.49;59.59
46081;BME280;31821;51.880;-0.518;2022-12-07T00:43:22;101438.78;;;5.56;58.94
46081;BME280;31821;51.880;-0.518;2022-12-07T00:45:47;101418.56;;;5.40;59.16
46081;BME280;31821;51.880;-0.518;2022-12-07T00:48:13;101452.72;;;5.55;59.65
46081;BME280;31821;51.880;-0.518;2022-12-07T00:50:38;101404.47;;;5.32;60.15
46081;BME280;31821;51.880;-0.518;2022-12-07T00:53:03;101399.16;;;5.25;59.96
46081;BME280;31821;51.880;-0.518;2022-12-07T00:55:33;101420.03;;;5.31;58.93
46081;BME280;31821;51.880;-0.518;2022-12-07T00:57:58;101394.91;;;5.17;59.67
46081;BME280;31821;51.880;-0.518;2022-12-07T01:00:24;101434.97;;;5.40;58.98
46081;BME280;31821;51.880;-0.518;2022-12-07T01:02:49;101436.13;;;5.44;59.04
46081;BME280;31821;51.880;-0.518;2022-12-07T01:05:15;101430.66;;;5.44;60.17
46081;BME280;31821;51.880;-0.518;2022-12-07T01:07:40;101488.50;;;5.82;59.02
46081;BME280;31821;51.880;-0.518;2022-12-07T01:10:06;101459.03;;;5.72;59.52
46081;BME280;31821;51.880;-0.518;2022-12-07T01:12:32;101453.66;;;5.60;58.72
46081;BME280;31821;51.880;-0.518;2022-12-07T01:14:57;101455.13;;;5.51;59.40
46081;BME280;31821;51.880;-0.518;2022-12-07T01:17:23;101432.66;;;5.49;58.43
46081;BME280;31821;51.880;-0.518;2022-12-07T01:19:48;101466.09;;;5.68;58.77
46081;BME280;31821;51.880;-0.518;2022-12-07T01:22:14;101425.56;;;5.19;59.21
46081;BME280;31821;51.880;-0.518;2022-12-07T01:24:39;101449.88;;;5.50;59.31
46081;BME280;31821;51.880;-0.518;2022-12-07T01:27:05;101422.94;;;5.41;59.16
46081;BME280;31821;51.880;-0.518;2022-12-07T01:29:30;101446.50;;;5.59;58.89
46081;BME280;31821;51.880;-0.518;2022-12-07T01:31:56;101475.88;;;5.64;59.95
46081;BME280;31821;51.880;-0.518;2022-12-07T01:34:21;101385.47;;;5.25;58.22
46081;BME280;31821;51.880;-0.518;2022-12-07T01:36:47;101423.38;;;5.50;59.09
46081;BME280;31821;51.880;-0.518;2022-12-07T01:39:12;101444.03;;;5.58;59.23
46081;BME280;31821;51.880;-0.518;2022-12-07T01:41:39;101442.19;;;5.47;58.84
46081;BME280;31821;51.880;-0.518;2022-12-07T01:44:26;101434.81;;;5.47;59.18
46081;BME280;31821;51.880;-0.518;2022-12-07T01:47:01;101485.91;;;5.75;59.93
46081;BME280;31821;51.880;-0.518;2022-12-07T01:49:35;101492.22;;;5.76;57.88
46081;BME280;31821;51.880;-0.518;2022-12-07T01:52:29;101463.38;;;5.68;58.52
46081;BME280;31821;51.880;-0.518;2022-12-07T01:54:58;101416.47;;;5.31;58.76
46081;BME280;31821;51.880;-0.518;2022-12-07T01:57:24;101475.72;;;5.71;58.50
46081;BME280;31821;51.880;-0.518;2022-12-07T01:59:51;101442.69;;;5.60;59.82
46081;BME280;31821;51.880;-0.518;2022-12-07T02:02:30;101463.38;;;5.68;59.87
46081;BME280;31821;51.880;-0.518;2022-12-07T02:04:59;101442.59;;;5.55;59.21
46081;BME280;31821;51.880;-0.518;2022-12-07T02:07:25;101434.97;;;5.40;59.88
46081;BME280;31821;51.880;-0.518;2022-12-07T02:09:52;101379.72;;;5.09;60.70
46081;BME280;31821;51.880;-0.518;2022-12-07T02:12:18;101454.69;;;5.42;59.76
46081;BME280;31821;51.880;-0.518;2022-12-07T02:14:44;101456.06;;;5.57;60.23
46081;BME280;31821;51.880;-0.518;2022-12-07T02:17:23;101444.78;;;5.53;60.55
46081;BME280;31821;51.880;-0.518;2022-12-07T02:19:59;101471.56;;;5.85;60.05
46081;BME280;31821;51.880;-0.518;2022-12-07T02:27:47;101474.28;;;5.85;58.69
46081;BME280;31821;51.880;-0.518;2022-12-07T02:43:14;101434.75;;;5.59;58.93
46081;BME280;31821;51.880;-0.518;2022-12-07T02:45:43;101451.16;;;5.59;59.71
46081;BME280;31821;51.880;-0.518;2022-12-07T02:48:12;101456.19;;;5.33;61.10
46081;BME280;31821;51.880;-0.518;2022-12-07T02:50:38;101414.16;;;5.22;60.82
46081;BME280;31821;51.880;-0.518;2022-12-07T02:53:04;101420.88;;;5.32;59.74
46081;BME280;31821;51.880;-0.518;2022-12-07T02:55:40;101448.16;;;5.43;58.61
46081;BME280;31821;51.880;-0.518;2022-12-07T02:58:30;101401.22;;;5.18;58.53
46081;BME280;31821;51.880;-0.518;2022-12-07T03:01:13;101385.53;;;4.96;58.88
46081;BME280;31821;51.880;-0.518;2022-12-07T03:03:46;101446.56;;;5.31;58.75
46081;BME280;31821;51.880;-0.518;2022-12-07T03:06:43;101413.53;;;5.03;59.44
46081;BME280;31821;51.880;-0.518;2022-12-07T03:09:50;101440.06;;;5.20;59.29
46081;BME280;31821;51.880;-0.518;2022-12-07T03:12:22;101431.34;;;5.06;59.01
46081;BME280;31821;51.880;-0.518;2022-12-07T03:15:07;101438.28;;;4.96;59.68
46081;BME280;31821;51.880;-0.518;2022-12-07T03:17:37;101401.13;;;4.84;59.33
46081;BME280;31821;51.880;-0.518;2022-12-07T03:20:06;101389.75;;;4.75;59.68
46081;BME280;31821;51.880;-0.518;2022-12-07T03:22:35;101416.81;;;4.88;59.22
46081;BME280;31821;51.880;-0.518;2022-12-07T03:25:06;101407.94;;;4.69;58.54
46081;BME280;31821;51.880;-0.518;2022-12-07T03:27:36;101351.69;;;4.27;58.61
46081;BME280;31821;51.880;-0.518;2022-12-07T03:30:08;101359.59;;;4.41;58.83
46081;BME280;31821;51.880;-0.518;2022-12-07T03:32:45;101410.00;;;4.62;58.01
46081;BME280;31821;51.880;-0.518;2022-12-07T03:35:24;101439.19;;;4.73;59.15
46081;BME280;31821;51.880;-0.518;2022-12-07T03:37:55;101419.19;;;4.56;58.03
46081;BME280;31821;51.880;-0.518;2022-12-07T03:40:23;101433.03;;;4.66;58.58
46081;BME280;31821;51.880;-0.518;2022-12-07T03:42:51;101375.66;;;4.25;59.05
46081;BME280;31821;51.880;-0.518;2022-12-07T03:45:21;101401.16;;;4.31;58.24
46081;BME280;31821;51.880;-0.518;2022-12-07T03:53:24;101437.13;;;4.28;59.39
46081;BME280;31821;51.880;-0.518;2022-12-07T03:55:54;101397.16;;;3.98;60.17
46081;BME280;31821;51.880;-0.518;2022-12-07T03:58:21;101384.59;;;4.09;60.32
46081;BME280;31821;51.880;-0.518;2022-12-07T04:00:49;101435.56;;;4.44;60.00
46081;BME280;31821;51.880;-0.518;2022-12-07T04:03:14;101438.81;;;4.41;59.54
46081;BME280;31821;51.880;-0.518;2022-12-07T04:05:40;101418.88;;;4.28;60.11
46081;BME280;31821;51.880;-0.518;2022-12-07T04:08:06;101435.00;;;4.42;58.93
46081;BME280;31821;51.880;-0.518;2022-12-07T04:10:32;101444.34;;;4.46;59.65
46081;BME280;31821;51.880;-0.518;2022-12-07T04:12:57;101437.72;;;4.42;60.20
46081;BME280;31821;51.880;-0.518;2022-12-07T04:15:23;101408.78;;;4.17;59.85
46081;BME280;31821;51.880;-0.518;2022-12-07T04:17:48;101442.25;;;4.24;61.74
46081;BME280;31821;51.880;-0.518;2022-12-07T04:20:14;101382.22;;;4.00;61.47
46081;BME280;31821;51.880;-0.518;2022-12-07T04:22:39;101423.00;;;4.31;61.48
46081;BME280;31821;51.880;-0.518;2022-12-07T04:25:05;101362.75;;;4.09;61.42
46081;BME280;31821;51.880;-0.518;2022-12-07T04:27:31;101344.81;;;4.13;60.84
46081;BME280;31821;51.880;-0.518;2022-12-07T04:29:56;101410.69;;;4.69;60.61
46081;BME280;31821;51.880;-0.518;2022-12-07T04:32:23;101411.63;;;4.75;59.38
46081;BME280;31821;51.880;-0.518;2022-12-07T04:34:49;101421.88;;;4.96;60.26
46081;BME280;31821;51.880;-0.518;2022-12-07T04:37:14;101413.66;;;4.96;60.87
46081;BME280;31821;51.880;-0.518;2022-12-07T04:39:40;101399.28;;;4.72;61.00
46081;BME280;31821;51.880;-0.518;2022-12-07T04:42:06;101435.19;;;4.93;60.46
46081;BME280;31821;51.880;-0.518;2022-12-07T04:44:31;101408.78;;;4.98;60.81
46081;BME280;31821;51.880;-0.518;2022-12-07T04:46:57;101396.78;;;4.71;59.76
46081;BME280;31821;51.880;-0.518;2022-12-07T04:49:24;101387.88;;;4.63;61.02
46081;BME280;31821;51.880;-0.518;2022-12-07T04:51:50;101375.47;;;4.56;60.66
46081;BME280;31821;51.880;-0.518;2022-12-07T04:54:16;101404.06;;;4.65;60.86
46081;BME280;31821;51.880;-0.518;2022-12-07T04:56:42;101409.13;;;4.73;60.51
46081;BME280;31821;51.880;-0.518;2022-12-07T04:59:09;101397.75;;;4.64;60.02
46081;BME280;31821;51.880;-0.518;2022-12-07T05:01:35;101392.94;;;4.55;59.46
46081;BME280;31821;51.880;-0.518;2022-12-07T05:04:00;101369.34;;;4.65;60.48
46081;BME280;31821;51.880;-0.518;2022-12-07T05:06:26;101417.13;;;4.92;59.85
46081;BME280;31821;51.880;-0.518;2022-12-07T05:08:52;101389.53;;;4.76;60.47
46081;BME280;31821;51.880;-0.518;2022-12-07T05:11:18;101345.75;;;4.59;59.38
46081;BME280;31821;51.880;-0.518;2022-12-07T05:14:04;101423.06;;;5.01;60.00
46081;BME280;31821;51.880;-0.518;2022-12-07T05:16:30;101414.34;;;5.04;59.81
46081;BME280;31821;51.880;-0.518;2022-12-07T05:18:55;101382.53;;;4.97;58.88
46081;BME280;31821;51.880;-0.518;2022-12-07T05:21:22;101354.94;;;4.82;58.94
46081;BME280;31821;51.880;-0.518;2022-12-07T05:23:47;101370.16;;;4.78;59.04
46081;BME280;31821;51.880;-0.518;2022-12-07T05:26:13;101382.00;;;4.84;59.54
46081;BME280;31821;51.880;-0.518;2022-12-07T05:28:38;101365.00;;;4.53;59.73
46081;BME280;31821;51.880;-0.518;2022-12-07T05:31:04;101423.81;;;4.84;58.10
46081;BME280;31821;51.880;-0.518;2022-12-07T05:33:29;101404.16;;;4.70;58.83
46081;BME280;31821;51.880;-0.518;2022-12-07T05:35:55;101402.00;;;4.72;59.35
46081;BME280;31821;51.880;-0.518;2022-12-07T05:38:20;101328.91;;;4.22;58.18
46081;BME280;31821;51.880;-0.518;2022-12-07T05:40:46;101370.75;;;4.39;58.67
46081;BME280;31821;51.880;-0.518;2022-12-07T05:43:11;101358.69;;;4.23;57.98
46081;BME280;31821;51.880;-0.518;2022-12-07T05:45:37;101379.72;;;4.11;59.16
46081;BME280;31821;51.880;-0.518;2022-12-07T05:48:03;101376.63;;;4.07;59.07
46081;BME280;31821;51.880;-0.518;2022-12-07T05:50:28;101405.69;;;4.37;58.95
46081;BME280;31821;51.880;-0.518;2022-12-07T05:52:54;101388.72;;;4.11;59.03
46081;BME280;31821;51.880;-0.518;2022-12-07T05:55:20;101349.59;;;3.94;58.96
46081;BME280;31821;51.880;-0.518;2022-12-07T05:57:45;101362.78;;;3.97;59.10
46081;BME280;31821;51.880;-0.518;2022-12-07T06:00:31;101387.75;;;4.17;59.19
46081;BME280;31821;51.880;-0.518;2022-12-07T06:02:57;101366.22;;;3.80;59.08
46081;BME280;31821;51.880;-0.518;2022-12-07T06:05:22;101337.75;;;3.64;58.80
46081;BME280;31821;51.880;-0.518;2022-12-07T06:07:48;101386.50;;;3.84;58.94
46081;BME280;31821;51.880;-0.518;2022-12-07T06:10:13;101359.81;;;3.51;59.44
46081;BME280;31821;51.880;-0.518;2022-12-07T06:12:39;101364.31;;;3.69;59.28
46081;BME280;31821;51.880;-0.518;2022-12-07T06:15:08;101385.44;;;3.73;59.44
46081;BME280;31821;51.880;-0.518;2022-12-07T06:17:34;101366.34;;;3.62;58.85
46081;BME280;31821;51.880;-0.518;2022-12-07T06:19:59;101400.00;;;3.79;58.76
46081;BME280;31821;51.880;-0.518;2022-12-07T06:22:27;101340.00;;;3.44;59.52
46081;BME280;31821;51.880;-0.518;2022-12-07T06:24:53;101391.84;;;3.67;58.65
46081;BME280;31821;51.880;-0.518;2022-12-07T06:27:18;101382.09;;;3.48;58.37
46081;BME280;31821;51.880;-0.518;2022-12-07T06:29:43;101415.53;;;3.67;58.52
46081;BME280;31821;51.880;-0.518;2022-12-07T06:32:09;101385.66;;;3.48;58.58
46081;BME280;31821;51.880;-0.518;2022-12-07T06:34:35;101382.56;;;3.45;58.63
46081;BME280;31821;51.880;-0.518;2022-12-07T06:37:00;101408.66;;;3.40;59.55
46081;BME280;31821;51.880;-0.518;2022-12-07T06:39:27;101397.25;;;3.01;60.94
46081;BME280;31821;51.880;-0.518;2022-12-07T06:41:53;101394.94;;;3.05;60.84
46081;BME280;31821;51.880;-0.518;2022-12-07T06:44:20;101384.56;;;3.25;60.38
46081;BME280;31821;51.880;-0.518;2022-12-07T06:46:46;101320.00;;;2.84;60.19
46081;BME280;31821;51.880;-0.518;2022-12-07T06:49:11;101395.81;;;3.29;60.34
46081;BME280;31821;51.880;-0.518;2022-12-07T06:51:37;101405.69;;;3.42;59.83
46081;BME280;31821;51.880;-0.518;2022-12-07T06:54:10;101322.84;;;2.89;59.88
46081;BME280;31821;51.880;-0.518;2022-12-07T06:56:36;101361.53;;;3.09;59.04
46081;BME280;31821;51.880;-0.518;2022-12-07T06:59:03;101364.34;;;3.03;59.00
46081;BME280;31821;51.880;-0.518;2022-12-07T07:01:29;101409.66;;;3.28;58.74
46081;BME280;31821;51.880;-0.518;2022-12-07T07:03:54;101389.97;;;3.14;59.10
46081;BME280;31821;51.880;-0.518;2022-12-07T07:06:20;101387.94;;;3.09;59.42
46081;BME280;31821;51.880;-0.518;2022-12-07T07:08:45;101403.13;;;2.86;60.75
46081;BME280;31821;51.880;-0.518;2022-12-07T07:11:11;101359.50;;;2.44;62.49
46081;BME280;31821;51.880;-0.518;2022-12-07T07:13:36;101372.66;;;2.47;61.92
46081;BME280;31821;51.880;-0.518;2022-12-07T07:16:02;101358.59;;;2.50;61.53
46081;BME280;31821;51.880;-0.518;2022-12-07T07:18:28;101376.31;;;2.22;62.50
46081;BME280;31821;51.880;-0.518;2022-12-07T07:20:54;101399.50;;;2.43;62.11
46081;BME280;31821;51.880;-0.518;2022-12-07T07:23:20;101395.63;;;2.70;61.50
46081;BME280;31821;51.880;-0.518;2022-12-07T07:25:47;101347.53;;;2.45;60.75
46081;BME280;31821;51.880;-0.518;2022-12-07T07:28:13;101366.94;;;2.67;60.55
46081;BME280;31821;51.880;-0.518;2022-12-07T07:30:38;101397.00;;;2.60;61.25
46081;BME280;31821;51.880;-0.518;2022-12-07T07:33:04;101387.44;;;2.70;60.94
46081;BME280;31821;51.880;-0.518;2022-12-07T07:35:32;101368.34;;;2.58;60.27
46081;BME280;31821;51.880;-0.518;2022-12-07T07:37:58;101379.22;;;2.58;60.05
46081;BME280;31821;51.880;-0.518;2022-12-07T07:40:24;101416.03;;;2.79;60.41
46081;BME280;31821;51.880;-0.518;2022-12-07T07:42:51;101401.88;;;2.70;60.06
46081;BME280;31821;51.880;-0.518;2022-12-07T07:45:26;101428.53;;;2.68;60.54
46081;BME280;31821;51.880;-0.518;2022-12-07T07:47:52;101372.44;;;2.30;61.02
46081;BME280;31821;51.880;-0.518;2022-12-07T07:50:18;101321.59;;;1.93;60.77
46081;BME280;31821;51.880;-0.518;2022-12-07T07:52:44;101415.03;;;2.43;60.89
46081;BME280;31821;51.880;-0.518;2022-12-07T07:55:10;101392.09;;;2.13;61.62
46081;BME280;31821;51.880;-0.518;2022-12-07T07:57:36;101374.03;;;2.00;61.64
46081;BME280;31821;51.880;-0.518;2022-12-07T08:00:21;101435.19;;;2.16;62.12
46081;BME280;31821;51.880;-0.518;2022-12-07T08:02:46;101415.41;;;2.28;61.39
46081;BME280;31821;51.880;-0.518;2022-12-07T08:05:13;101360.38;;;2.07;62.18
46081;BME280;31821;51.880;-0.518;2022-12-07T08:07:39;101425.97;;;2.55;61.74
46081;BME280;31821;51.880;-0.518;2022-12-07T08:10:06;101434.19;;;2.67;61.32
46081;BME280;31821;51.880;-0.518;2022-12-07T08:12:35;101404.59;;;2.70;60.62
46081;BME280;31821;51.880;-0.518;2022-12-07T08:15:01;101412.59;;;2.84;60.85
46081;BME280;31821;51.880;-0.518;2022-12-07T08:17:26;101387.97;;;2.60;60.53
46081;BME280;31821;51.880;-0.518;2022-12-07T08:19:52;101403.47;;;2.78;60.25
46081;BME280;31821;51.880;-0.518;2022-12-07T08:22:17;101377.31;;;2.58;60.89
46081;BME280;31821;51.880;-0.518;2022-12-07T08:24:44;101437.31;;;3.01;60.30
46081;BME280;31821;51.880;-0.518;2022-12-07T08:27:09;101429.59;;;2.98;61.32
46081;BME280;31821;51.880;-0.518;2022-12-07T08:29:35;101321.63;;;2.24;60.96
46081;BME280;31821;51.880;-0.518;2022-12-07T08:32:01;101386.38;;;2.71;60.91
46081;BME280;31821;51.880;-0.518;2022-12-07T08:34:26;101352.81;;;2.58;60.75
46081;BME280;31821;51.880;-0.518;2022-12-07T08:36:52;101410.69;;;3.03;60.45
46081;BME280;31821;51.880;-0.518;2022-12-07T08:39:17;101415.00;;;3.22;60.65
46081;BME280;31821;51.880;-0.518;2022-12-07T08:41:43;101320.06;;;2.65;59.63
46081;BME280;31821;51.880;-0.518;2022-12-07T08:44:08;101408.88;;;3.39;60.62
46081;BME280;31821;51.880;-0.518;2022-12-07T08:46:40;101388.88;;;3.45;60.17
46081;BME280;31821;51.880;-0.518;2022-12-07T08:49:13;101370.09;;;3.37;59.79
46081;BME280;31821;51.880;-0.518;2022-12-07T08:51:40;101360.84;;;3.26;60.04
46081;BME280;31821;51.880;-0.518;2022-12-07T08:54:10;101415.94;;;4.06;60.51
46081;BME280;31821;51.880;-0.518;2022-12-07T08:56:37;101391.53;;;4.40;59.98
46081;BME280;31821;51.880;-0.518;2022-12-07T08:59:04;101333.31;;;4.51;58.95
46081;BME280;31821;51.880;-0.518;2022-12-07T09:01:30;101367.09;;;5.20;57.49
46081;BME280;31821;51.880;-0.518;2022-12-07T09:03:56;101388.94;;;5.71;55.58
46081;BME280;31821;51.880;-0.518;2022-12-07T09:06:21;101406.09;;;6.18;55.46
46081;BME280;31821;51.880;-0.518;2022-12-07T09:08:50;101357.31;;;6.37;53.86
46081;BME280;31821;51.880;-0.518;2022-12-07T09:11:16;101326.47;;;6.47;51.03
46081;BME280;31821;51.880;-0.518;2022-12-07T09:13:42;101316.75;;;6.89;50.66
46081;BME280;31821;51.880;-0.518;2022-12-07T09:16:10;101341.72;;;7.52;49.60
46081;BME280;31821;51.880;-0.518;2022-12-07T09:18:36;101309.19;;;7.76;49.21
46081;BME280;31821;51.880;-0.518;2022-12-07T09:21:01;101326.69;;;8.18;48.49
46081;BME280;31821;51.880;-0.518;2022-12-07T09:23:27;101307.88;;;8.53;49.01
46081;BME280;31821;51.880;-0.518;2022-12-07T09:25:52;101345.38;;;9.31;47.38
46081;BME280;31821;51.880;-0.518;2022-12-07T09:28:18;101285.09;;;9.40;46.54
46081;BME280;31821;51.880;-0.518;2022-12-07T09:30:47;101344.97;;;10.10;45.88
46081;BME280;31821;51.880;-0.518;2022-12-07T09:33:13;101302.69;;;10.46;43.92
46081;BME280;31821;51.880;-0.518;2022-12-07T09:35:44;101351.94;;;11.13;42.15
46081;BME280;31821;51.880;-0.518;2022-12-07T09:38:10;101314.81;;;11.25;42.52
46081;BME280;31821;51.880;-0.518;2022-12-07T09:40:35;101359.03;;;11.84;41.93
46081;BME280;31821;51.880;-0.518;2022-12-07T09:43:01;101322.16;;;11.93;42.16
46081;BME280;31821;51.880;-0.518;2022-12-07T09:47:57;101358.72;;;12.58;40.71
46081;BME280;31821;51.880;-0.518;2022-12-07T09:50:25;101301.22;;;12.36;40.59
46081;BME280;31821;51.880;-0.518;2022-12-07T09:52:52;101353.22;;;12.77;40.02
46081;BME280;31821;51.880;-0.518;2022-12-07T09:55:23;101315.09;;;12.55;39.71
46081;BME280;31821;51.880;-0.518;2022-12-07T09:57:50;101320.75;;;12.64;39.83
46081;BME280;31821;51.880;-0.518;2022-12-07T10:00:19;101362.34;;;12.97;40.18
46081;BME280;31821;51.880;-0.518;2022-12-07T10:03:01;101360.16;;;13.13;38.46
46081;BME280;31821;51.880;-0.518;2022-12-07T10:05:32;101284.56;;;12.79;38.35
46081;BME280;31821;51.880;-0.518;2022-12-07T10:08:00;101319.03;;;13.06;38.71
46081;BME280;31821;51.880;-0.518;2022-12-07T10:10:35;101351.25;;;12.15;38.06
46081;BME280;31821;51.880;-0.518;2022-12-07T10:20:48;101316.66;;;10.65;42.45
46081;BME280;31821;51.880;-0.518;2022-12-07T10:23:15;101346.63;;;10.77;43.56
46081;BME280;31821;51.880;-0.518;2022-12-07T10:25:42;101346.31;;;10.84;41.62
46081;BME280;31821;51.880;-0.518;2022-12-07T10:30:48;101330.09;;;12.05;40.45
46081;BME280;31821;51.880;-0.518;2022-12-07T10:33:44;101337.97;;;12.99;38.08
46081;BME280;31821;51.880;-0.518;2022-12-07T10:36:22;101336.59;;;13.15;36.73
46081;BME280;31821;51.880;-0.518;2022-12-07T10:38:51;101324.31;;;13.55;37.89
46081;BME280;31821;51.880;-0.518;2022-12-07T10:41:17;101311.63;;;13.68;37.03
46081;BME280;31821;51.880;-0.518;2022-12-07T10:44:02;101314.00;;;14.16;36.15
46081;BME280;31821;51.880;-0.518;2022-12-07T10:46:58;101321.25;;;14.54;34.93
46081;BME280;31821;51.880;-0.518;2022-12-07T10:55:32;101300.91;;;15.18;33.96
46081;BME280;31821;51.880;-0.518;2022-12-07T11:00:54;101215.28;;;14.29;34.05
46081;BME280;31821;51.880;-0.518;2022-12-07T11:03:38;101243.22;;;14.69;34.50
46081;BME280;31821;51.880;-0.518;2022-12-07T11:06:22;101269.34;;;15.14;33.66
46081;BME280;31821;51.880;-0.518;2022-12-07T11:11:33;101244.81;;;15.07;34.33
46081;BME280;31821;51.880;-0.518;2022-12-07T11:28:11;101267.91;;;13.78;35.56
46081;BME280;31821;51.880;-0.518;2022-12-07T11:31:15;101235.06;;;14.36;34.76
46081;BME280;31821;51.880;-0.518;2022-12-07T11:33:46;101239.84;;;14.58;33.24
46081;BME280;31821;51.880;-0.518;2022-12-07T11:36:37;101255.75;;;15.12;33.42
46081;BME280;31821;51.880;-0.518;2022-12-07T11:39:16;101252.13;;;15.03;33.35
46081;BME280;31821;51.880;-0.518;2022-12-07T11:41:48;101221.06;;;14.05;34.53
46081;BME280;31821;51.880;-0.518;2022-12-07T11:52:18;101102.28;;;12.92;34.95
46081;BME280;31821;51.880;-0.518;2022-12-07T11:57:44;101237.97;;;13.19;36.73
46081;BME280;31821;51.880;-0.518;2022-12-07T12:00:15;101060.66;;;12.36;36.93
46081;BME280;31821;51.880;-0.518;2022-12-07T12:05:32;101081.97;;;13.52;34.93
46081;BME280;31821;51.880;-0.518;2022-12-07T12:08:17;101060.31;;;13.54;33.73
46081;BME280;31821;51.880;-0.518;2022-12-07T12:22:53;101193.50;;;12.97;36.83
46081;BME280;31821;51.880;-0.518;2022-12-07T12:28:53;101197.19;;;11.77;38.42
46081;BME280;31821;51.880;-0.518;2022-12-07T12:33:49;101017.09;;;11.18;39.09
46081;BME280;31821;51.880;-0.518;2022-12-07T12:36:20;101131.75;;;12.35;38.12
46081;BME280;31821;51.880;-0.518;2022-12-07T12:39:09;101181.88;;;12.81;38.51
46081;BME280;31821;51.880;-0.518;2022-12-07T12:46:50;101016.19;;;11.42;38.33
46081;BME280;31821;51.880;-0.518;2022-12-07T12:56:55;100989.03;;;10.33;39.63
46081;BME280;31821;51.880;-0.518;2022-12-07T12:59:34;101179.06;;;11.23;40.98
46081;BME280;31821;51.880;-0.518;2022-12-07T13:10:33;101168.53;;;11.25;40.01
46081;BME280;31821;51.880;-0.518;2022-12-07T13:15:55;101070.09;;;10.32;41.41
46081;BME280;31821;51.880;-0.518;2022-12-07T13:18:41;101003.13;;;10.02;41.83
46081;BME280;31821;51.880;-0.518;2022-12-07T13:23:55;101028.41;;;10.09;41.88
46081;BME280;31821;51.880;-0.518;2022-12-07T13:29:16;101080.63;;;10.24;42.39
46081;BME280;31821;51.880;-0.518;2022-12-07T13:31:56;101134.41;;;10.62;41.84
46081;BME280;31821;51.880;-0.518;2022-12-07T13:34:39;101148.66;;;10.98;41.91
46081;BME280;31821;51.880;-0.518;2022-12-07T13:37:15;101144.16;;;11.08;42.19
46081;BME280;31821;51.880;-0.518;2022-12-07T13:39:49;100984.63;;;10.02;41.96
46081;BME280;31821;51.880;-0.518;2022-12-07T13:42:24;101077.06;;;10.59;41.31
46081;BME280;31821;51.880;-0.518;2022-12-07T13:44:53;101019.19;;;10.19;42.02
46081;BME280;31821;51.880;-0.518;2022-12-07T13:47:41;100949.94;;;9.32;42.06
46081;BME280;31821;51.880;-0.518;2022-12-07T13:50:25;100980.31;;;9.56;43.45
46081;BME280;31821;51.880;-0.518;2022-12-07T13:52:56;101003.75;;;9.88;43.10
46081;BME280;31821;51.880;-0.518;2022-12-07T13:55:25;101071.00;;;10.22;42.97
46081;BME280;31821;51.880;-0.518;2022-12-07T13:57:52;100926.81;;;9.33;43.94
46081;BME280;31821;51.880;-0.518;2022-12-07T14:00:24;101042.28;;;9.93;43.37
46081;BME280;31821;51.880;-0.518;2022-12-07T14:03:00;100960.50;;;9.14;44.23
46081;BME280;31821;51.880;-0.518;2022-12-07T14:05:30;100936.00;;;8.52;45.97
46081;BME280;31821;51.880;-0.518;2022-12-07T14:08:22;101101.75;;;9.55;45.63
46081;BME280;31821;51.880;-0.518;2022-12-07T14:14:01;101038.94;;;9.57;44.63
46081;BME280;31821;51.880;-0.518;2022-12-07T14:16:31;100987.47;;;9.07;45.66
46081;BME280;31821;51.880;-0.518;2022-12-07T14:19:03;100885.66;;;8.62;45.16
46081;BME280;31821;51.880;-0.518;2022-12-07T14:21:32;101102.44;;;9.81;44.53
46081;BME280;31821;51.880;-0.518;2022-12-07T14:26:38;100949.94;;;8.77;45.51
46081;BME280;31821;51.880;-0.518;2022-12-07T14:29:27;101072.22;;;9.66;45.47
46081;BME280;31821;51.880;-0.518;2022-12-07T14:31:59;100925.25;;;8.61;45.58
46081;BME280;31821;51.880;-0.518;2022-12-07T14:34:38;101070.00;;;9.62;45.92
46081;BME280;31821;51.880;-0.518;2022-12-07T14:37:09;100917.84;;;8.46;45.40
46081;BME280;31821;51.880;-0.518;2022-12-07T14:39:35;100879.22;;;8.01;46.15
46081;BME280;31821;51.880;-0.518;2022-12-07T14:42:00;100948.09;;;8.36;45.40
46081;BME280;31821;51.880;-0.518;2022-12-07T14:44:26;101050.88;;;8.30;47.58
46081;BME280;31821;51.880;-0.518;2022-12-07T14:46:55;100969.03;;;7.59;48.01
46081;BME280;31821;51.880;-0.518;2022-12-07T14:52:30;100893.28;;;7.43;47.36
46081;BME280;31821;51.880;-0.518;2022-12-07T14:54:56;100918.53;;;7.45;48.17
46081;BME280;31821;51.880;-0.518;2022-12-07T14:57:22;100877.63;;;7.12;48.13
46081;BME280;31821;51.880;-0.518;2022-12-07T14:59:48;101095.66;;;8.35;49.05
46081;BME280;31821;51.880;-0.518;2022-12-07T15:02:15;100951.19;;;7.57;48.05
46081;BME280;31821;51.880;-0.518;2022-12-07T15:04:41;100994.31;;;7.72;48.86
46081;BME280;31821;51.880;-0.518;2022-12-07T15:07:20;100902.31;;;7.12;49.54
46081;BME280;31821;51.880;-0.518;2022-12-07T15:09:48;100889.13;;;7.04;47.99
46081;BME280;31821;51.880;-0.518;2022-12-07T15:12:17;100903.41;;;7.06;49.67